Time;durP1;ratioP1;P1;durP2;ratioP2;P2;SDS_P1;SDS_P2;PMS_P1;PMS_P2;Temp;Humidity;BMP_temperature;BMP_pressure;BME280_temperature;BME280_humidity;BME280_pressure;Samples;Min_cycle;Max_cycle;Signal;HPM_P1;HPM_P2
2020/12/04 00:03:07;;;;;;;82.07;39.80;;;;;;;0.67;77.46;97483.19;3601868;82;21478;-77
2020/12/04 00:08:08;;;;;;;93.20;42.40;;;;;;;0.74;77.58;97506.19;3601999;82;20968;-77
2020/12/04 00:13:11;;;;;;;81.20;37.33;;;;;;;0.82;77.63;97501.72;3601929;82;21410;-77
2020/12/04 00:18:13;;;;;;;71.63;37.23;;;;;;;0.87;77.57;97467.20;3601840;82;21046;-77
2020/12/04 00:23:16;;;;;;;69.50;34.07;;;;;;;0.84;77.57;97478.55;3602394;82;21006;-78
2020/12/04 00:28:18;;;;;;;54.33;27.23;;;;;;;0.89;77.79;97467.75;3607736;80;21000;-77
2020/12/04 00:33:20;;;;;;;58.13;29.47;;;;;;;0.94;77.60;97473.84;3665853;80;21047;-77
2020/12/04 00:38:23;;;;;;;52.37;26.57;;;;;;;1.00;77.62;97466.75;3636555;81;21008;-77
2020/12/04 00:43:25;;;;;;;62.00;31.77;;;;;;;1.02;77.51;97469.91;3655681;81;21028;-77
2020/12/04 00:48:27;;;;;;;57.03;31.53;;;;;;;1.06;77.37;97471.52;3655771;81;20953;-78
2020/12/04 00:53:30;;;;;;;66.23;32.80;;;;;;;1.12;77.46;97476.55;3630528;81;21031;-77
2020/12/04 00:58:32;;;;;;;63.87;33.47;;;;;;;1.16;77.52;97458.34;3625123;81;21024;-78
2020/12/04 01:03:35;;;;;;;63.93;33.20;;;;;;;1.20;77.48;97454.14;3655864;81;21011;-77
2020/12/04 01:08:38;;;;;;;63.90;32.57;;;;;;;1.22;77.46;97450.73;3655661;81;21016;-78
2020/12/04 01:13:40;;;;;;;59.27;31.10;;;;;;;1.15;77.28;97444.92;3655797;81;21020;-77
2020/12/04 01:18:43;;;;;;;57.13;31.10;;;;;;;1.11;77.46;97438.57;3655572;81;21004;-78
2020/12/04 01:23:45;;;;;;;61.27;29.50;;;;;;;1.11;77.63;97451.76;3655697;81;21032;-77
2020/12/04 01:28:47;;;;;;;50.80;27.27;;;;;;;1.15;77.64;97445.70;3655719;81;21031;-77
2020/12/04 01:33:49;;;;;;;53.83;28.97;;;;;;;1.21;77.54;97440.45;3655546;81;20992;-77
2020/12/04 01:38:51;;;;;;;58.87;29.23;;;;;;;1.29;77.64;97435.98;3655413;81;21020;-77
2020/12/04 01:43:52;;;;;;;54.30;30.00;;;;;;;1.36;77.60;97425.97;3655553;81;20973;-77
2020/12/04 01:48:55;;;;;;;53.00;27.57;;;;;;;1.41;77.40;97419.36;3655588;81;21032;-77
2020/12/04 01:53:57;;;;;;;56.20;29.33;;;;;;;1.50;77.74;97413.06;3655609;81;20976;-77
2020/12/04 01:58:59;;;;;;;68.03;34.50;;;;;;;1.59;77.67;97384.29;3645922;81;21192;-78
2020/12/04 02:04:01;;;;;;;65.03;31.60;;;;;;;1.69;77.70;97387.73;3672935;80;21073;-77
2020/12/04 02:09:20;;;;;;;58.37;31.60;;;;;;;1.77;77.71;97382.97;3645335;81;21004;-77
2020/12/04 02:14:23;;;;;;;65.23;33.57;;;;;;;1.84;77.61;97374.25;3611739;82;21009;-76
2020/12/04 02:19:26;;;;;;;49.60;25.43;;;;;;;1.91;77.58;97366.06;3606538;82;21020;-76
2020/12/04 02:24:28;;;;;;;54.00;28.27;;;;;;;1.91;77.48;97354.17;3606433;82;20952;-77
2020/12/04 02:29:31;;;;;;;53.00;29.37;;;;;;;1.95;77.50;97351.27;3630742;81;21479;-77
2020/12/04 02:34:33;;;;;;;46.87;25.60;;;;;;;1.98;77.51;97353.38;3674906;80;21016;-78
2020/12/04 02:39:36;;;;;;;46.90;25.37;;;;;;;2.03;77.82;97335.66;3637471;81;21019;-78
2020/12/04 02:44:38;;;;;;;49.90;27.07;;;;;;;2.13;77.69;97336.16;3705538;80;21048;-77
2020/12/04 02:49:40;;;;;;;43.33;22.97;;;;;;;2.21;77.63;97338.77;3637272;81;21012;-78
2020/12/04 02:54:41;;;;;;;47.67;25.90;;;;;;;2.31;77.69;97340.59;3705524;80;21047;-77
2020/12/04 02:59:43;;;;;;;40.93;23.63;;;;;;;2.31;77.69;97340.59;3624635;81;20991;-77
2020/12/04 03:04:46;;;;;;;41.60;23.77;;;;;;;2.41;77.64;97335.29;3645920;80;21020;-77
2020/12/04 03:09:48;;;;;;;40.03;22.10;;;;;;;2.46;77.69;97329.96;3611915;82;21036;-77
2020/12/04 03:14:50;;;;;;;43.43;24.13;;;;;;;2.50;77.22;97320.43;3635013;81;21020;-77
2020/12/04 03:19:52;;;;;;;42.67;22.40;;;;;;;2.50;77.22;97320.43;3639402;81;21040;-77
2020/12/04 03:24:54;;;;;;;43.23;21.27;;;;;;;2.46;77.22;97326.00;3639535;81;20984;-77
2020/12/04 03:29:56;;;;;;;43.00;24.90;;;;;;;2.46;77.28;97318.61;3633978;81;21297;-77
2020/12/04 03:34:58;;;;;;;37.77;20.43;;;;;;;2.45;77.31;97301.16;3704986;80;21495;-78
2020/12/04 03:40:00;;;;;;;38.93;21.67;;;;;;;2.53;77.24;97296.63;3705209;80;20981;-78
2020/12/04 03:45:03;;;;;;;44.17;23.47;;;;;;;2.61;77.24;97293.97;3637045;81;21444;-78
2020/12/04 03:50:06;;;;;;;49.67;27.77;;;;;;;2.61;77.24;97293.97;3705145;80;20995;-78
2020/12/04 03:55:08;;;;;;;39.47;22.57;;;;;;;2.65;77.30;97298.42;3705225;80;20975;-78
2020/12/04 04:00:10;;;;;;;41.97;22.70;;;;;;;2.68;77.27;97300.52;3666591;80;21379;-78
2020/12/04 04:05:16;;;;;;;32.13;18.57;;;;;;;2.71;77.15;97296.55;3628302;81;21451;-78
2020/12/04 04:10:18;;;;;;;36.53;19.77;;;;;;;2.71;77.15;97296.55;3628506;81;20984;-78
2020/12/04 04:15:20;;;;;;;38.77;21.33;;;;;;;2.73;77.27;97299.18;3628253;81;21019;-77
2020/12/04 04:20:22;;;;;;;36.90;20.73;;;;;;;2.73;76.99;97291.79;3628291;81;21024;-77
2020/12/04 04:25:24;;;;;;;34.33;19.83;;;;;;;2.72;77.01;97311.36;3628138;81;20964;-77
2020/12/04 04:30:28;;;;;;;48.03;25.27;;;;;;;2.70;76.93;97323.53;3649344;80;21031;-77
2020/12/04 04:35:30;;;;;;;48.33;26.00;;;;;;;2.66;76.87;97334.39;3640440;81;20984;-77
2020/12/04 04:40:32;;;;;;;40.93;23.30;;;;;;;2.67;76.83;97290.22;3640339;81;20991;-77
2020/12/04 04:45:36;;;;;;;43.50;24.77;;;;;;;2.61;76.78;97284.17;3574780;83;21107;-77
2020/12/04 04:50:42;;;;;;;36.33;18.90;;;;;;;2.61;76.78;97284.17;3647790;80;20993;-77
2020/12/04 04:55:45;;;;;;;49.57;26.80;;;;;;;2.59;76.92;97290.78;3637183;81;20945;-77
2020/12/04 05:00:47;;;;;;;42.77;23.30;;;;;;;2.54;76.97;97285.78;3704853;80;21059;-76
2020/12/04 05:05:52;;;;;;;47.13;24.47;;;;;;;2.55;77.12;97277.34;3704995;80;21006;-76
2020/12/04 05:11:09;;;;;;;48.97;26.63;;;;;;;2.53;77.04;97294.80;3637245;81;21039;-76
2020/12/04 05:16:28;;;;;;;51.87;27.67;;;;;;;2.61;77.26;97291.33;3705157;80;20960;-77
2020/12/04 05:21:36;;;;;;;39.53;21.93;;;;;;;2.53;77.09;97269.69;3635499;81;20969;-77
2020/12/04 05:26:38;;;;;;;40.50;20.43;;;;;;;2.62;77.19;97292.91;3700093;80;20951;-77
2020/12/04 05:31:40;;;;;;;38.13;21.27;;;;;;;2.58;77.24;97289.23;3636847;81;20992;-77
2020/12/04 05:36:45;;;;;;;40.33;22.17;;;;;;;2.59;77.72;97269.64;3705243;80;21027;-77
2020/12/04 05:41:48;;;;;;;40.63;22.83;;;;;;;2.59;77.72;97269.64;3636963;81;21032;-76
2020/12/04 05:46:53;;;;;;;40.07;22.30;;;;;;;2.47;77.35;97253.58;3705145;80;20988;-76
2020/12/04 05:51:57;;;;;;;43.50;22.07;;;;;;;2.57;77.47;97264.63;3637811;81;21055;-76
2020/12/04 05:57:01;;;;;;;45.97;26.60;;;;;;;2.53;77.52;97270.20;3640476;81;21479;-77
2020/12/04 06:02:04;;;;;;;42.98;24.18;;;;;;;2.57;77.65;97277.84;3656652;80;49239;-77
2020/12/04 06:07:06;;;;;;;45.33;24.77;;;;;;;2.62;77.69;97288.41;3616648;82;21356;-78
2020/12/04 06:12:11;;;;;;;44.70;24.70;;;;;;;2.67;77.74;97294.19;3627994;81;21004;-77
2020/12/04 06:17:13;;;;;;;41.60;23.73;;;;;;;2.77;77.63;97294.66;3628418;81;21460;-77
2020/12/04 06:22:18;;;;;;;41.17;25.50;;;;;;;2.81;77.58;97293.86;3625534;81;21020;-77
2020/12/04 06:27:44;;;;;;;40.50;23.67;;;;;;;2.89;77.55;97306.48;3614470;81;20997;-77
2020/12/04 06:32:51;;;;;;;48.33;25.67;;;;;;;2.96;77.65;97313.34;3586142;82;21004;-77
2020/12/04 06:37:53;;;;;;;45.87;25.47;;;;;;;3.02;77.50;97314.36;3586049;82;21408;-78
2020/12/04 06:43:00;;;;;;;43.77;21.97;;;;;;;3.10;77.61;97318.27;3587657;80;21079;-77
2020/12/04 06:48:16;;;;;;;36.20;20.57;;;;;;;3.16;77.49;97319.83;3636662;81;20997;-77
2020/12/04 06:53:26;;;;;;;39.23;23.03;;;;;;;3.25;77.31;97320.80;3874164;75;26664;-78
2020/12/04 06:58:29;;;;;;;36.77;20.00;;;;;;;3.21;77.33;97322.97;3805195;77;21030;-76
2020/12/04 07:03:32;;;;;;;39.77;21.23;;;;;;;3.24;77.23;97319.22;3822242;75;20994;-77
2020/12/04 07:08:34;;;;;;;34.40;19.70;;;;;;;3.31;77.18;97316.80;3793385;75;21016;-77
2020/12/04 07:13:38;;;;;;;34.17;18.47;;;;;;;3.32;77.05;97312.55;3819056;75;21019;-75
2020/12/04 07:18:40;;;;;;;32.10;18.90;;;;;;;3.31;77.04;97318.13;3824358;75;21105;-76
2020/12/04 07:23:43;;;;;;;39.47;22.07;;;;;;;3.30;77.02;97310.70;3805179;75;21365;-77
2020/12/04 07:28:47;;;;;;;36.57;20.60;;;;;;;3.31;77.29;97290.34;3815848;75;21082;-76
2020/12/04 07:33:57;;;;;;;37.27;19.80;;;;;;;3.41;77.83;97288.41;3800097;76;20987;-77
2020/12/04 07:39:01;;;;;;;35.10;18.37;;;;;;;3.60;77.69;97281.09;3833057;77;21308;-75
2020/12/04 07:44:06;;;;;;;33.30;18.63;;;;;;;3.63;77.32;97281.84;3707233;78;21031;-76
2020/12/04 07:49:16;;;;;;;35.23;18.80;;;;;;;3.66;77.29;97286.58;3636158;79;21091;-76
2020/12/04 07:54:23;;;;;;;35.67;19.80;;;;;;;3.75;77.28;97265.59;3604355;81;21039;-77
2020/12/04 07:59:33;;;;;;;40.60;23.17;;;;;;;3.83;77.27;97263.63;3667694;78;21030;-76
2020/12/04 08:04:35;;;;;;;35.33;21.25;;;;;;;3.92;77.11;97263.27;3662299;79;21035;-75
2020/12/04 08:09:41;;;;;;;38.43;20.90;;;;;;;4.00;76.90;97273.00;3705464;80;21052;-75
2020/12/04 08:14:56;;;;;;;37.73;22.40;;;;;;;4.10;76.91;97272.91;3693845;78;21034;-76
2020/12/04 08:20:00;;;;;;;40.30;23.47;;;;;;;4.22;76.63;97289.17;3686973;80;21063;-76
2020/12/04 08:25:06;;;;;;;44.33;23.47;;;;;;;4.37;76.65;97299.36;3675187;80;21006;-76
2020/12/04 08:30:17;;;;;;;42.83;23.03;;;;;;;4.50;76.42;97277.44;3606562;81;21462;-76
2020/12/04 08:35:24;;;;;;;38.53;22.93;;;;;;;4.58;75.88;97256.91;3640820;80;21004;-75
2020/12/04 08:40:30;;;;;;;37.00;20.00;;;;;;;4.75;75.80;97259.06;3602893;80;21058;-76
2020/12/04 08:45:32;;;;;;;33.17;19.53;;;;;;;4.78;75.60;97280.25;3616189;81;21015;-75
2020/12/04 08:50:42;;;;;;;43.50;26.27;;;;;;;4.93;75.82;97280.03;3609511;81;21043;-75
2020/12/04 08:55:50;;;;;;;45.63;26.12;;;;;;;5.09;75.67;97281.94;3564486;82;21044;-76
2020/12/04 09:00:56;;;;;;;41.07;22.30;;;;;;;5.22;75.52;97257.84;3596204;82;21086;-75
2020/12/04 09:05:58;;;;;;;40.33;21.73;;;;;;;5.27;74.96;97259.10;3539576;82;21011;-75
2020/12/04 09:11:00;;;;;;;35.40;21.70;;;;;;;5.34;75.11;97259.25;3624878;80;21053;-75
2020/12/04 09:16:01;;;;;;;35.33;19.50;;;;;;;5.43;75.29;97250.88;3627707;80;21585;-75
2020/12/04 09:21:04;;;;;;;34.67;20.10;;;;;;;5.53;75.08;97276.48;3681115;79;20989;-75
2020/12/04 09:26:06;;;;;;;34.47;20.63;;;;;;;5.62;74.94;97252.13;3668368;79;21051;-75
2020/12/04 09:31:08;;;;;;;29.03;15.47;;;;;;;5.68;74.97;97254.95;3697854;80;20979;-75
2020/12/04 09:36:10;;;;;;;25.30;13.37;;;;;;;5.94;75.75;97248.61;3564031;81;21035;-76
2020/12/04 09:41:12;;;;;;;22.43;13.57;;;;;;;6.44;76.07;97237.84;3605751;80;21055;-76
2020/12/04 09:46:14;;;;;;;25.60;15.17;;;;;;;6.94;75.45;97232.47;3683617;79;21064;-76
2020/12/04 09:51:16;;;;;;;28.13;14.50;;;;;;;7.33;74.94;97247.52;3679063;79;21009;-76
2020/12/04 09:56:18;;;;;;;28.43;15.67;;;;;;;7.54;74.17;97237.13;3637961;80;21073;-77
2020/12/04 10:01:20;;;;;;;24.27;14.17;;;;;;;7.66;73.76;97233.91;3666952;79;21452;-77
2020/12/04 10:06:22;;;;;;;27.37;15.17;;;;;;;7.78;73.14;97222.66;3659615;79;21038;-76
2020/12/04 10:11:24;;;;;;;26.80;15.43;;;;;;;7.83;73.01;97230.53;3647116;80;21051;-77
2020/12/04 10:16:25;;;;;;;25.23;13.97;;;;;;;7.81;72.70;97231.40;3662173;80;21034;-77
2020/12/04 10:21:35;;;;;;;23.03;13.37;;;;;;;7.84;72.48;97215.55;3655073;80;22007;-77
2020/12/04 10:26:46;;;;;;;27.00;15.63;;;;;;;7.85;72.14;97209.14;3646153;80;21039;-76
2020/12/04 10:31:49;;;;;;;24.77;13.70;;;;;;;7.81;72.00;97212.73;3658261;80;21320;-76
2020/12/04 10:36:51;;;;;;;24.47;15.00;;;;;;;7.80;72.03;97212.49;3646771;80;20999;-77
2020/12/04 10:41:53;;;;;;;21.63;12.97;;;;;;;7.90;72.15;97209.53;3647147;80;21062;-75
2020/12/04 10:46:55;;;;;;;23.37;13.97;;;;;;;8.11;72.14;97213.75;3688463;80;21027;-77
2020/12/04 10:51:58;;;;;;;24.83;15.33;;;;;;;8.32;71.69;97202.50;3676222;79;21004;-76
2020/12/04 10:57:00;;;;;;;27.87;16.60;;;;;;;8.32;70.72;97211.28;3694475;78;21036;-76
2020/12/04 11:02:12;;;;;;;28.80;16.93;;;;;;;8.18;70.86;97207.44;3647637;81;21468;-77
2020/12/04 11:07:09;;;;;;;27.93;15.77;;;;;;;8.21;71.07;97196.67;3621141;79;21444;-76
2020/12/04 11:12:13;;;;;;;28.23;15.83;;;;;;;8.36;71.10;97198.12;3679917;78;21496;-75
2020/12/04 11:17:15;;;;;;;27.73;13.63;;;;;;;8.47;71.03;97199.97;3656223;80;21243;-76
2020/12/04 11:22:18;;;;;;;23.03;12.10;;;;;;;8.55;70.80;97197.86;3649944;80;21471;-75
2020/12/04 11:27:20;;;;;;;20.80;12.33;;;;;;;8.70;70.28;97183.24;3646224;79;21015;-77
2020/12/04 11:32:22;;;;;;;19.53;11.37;;;;;;;8.82;70.16;97196.75;3631878;80;21423;-77
2020/12/04 11:37:24;;;;;;;21.17;12.60;;;;;;;8.84;69.90;97198.57;3670054;79;21044;-74
2020/12/04 11:42:27;;;;;;;23.23;12.73;;;;;;;8.82;69.69;97203.42;3634190;79;21051;-76
2020/12/04 11:47:29;;;;;;;24.33;13.47;;;;;;;8.75;69.92;97210.35;3603696;79;20983;-75
2020/12/04 11:52:31;;;;;;;22.30;13.27;;;;;;;8.85;70.33;97220.14;3649312;79;20998;-74
2020/12/04 11:57:35;;;;;;;31.47;16.13;;;;;;;9.03;70.15;97216.92;3729959;78;21495;-75
2020/12/04 12:02:38;;;;;;;31.33;16.90;;;;;;;9.10;70.02;97221.02;3638634;80;21015;-75
2020/12/04 12:07:41;;;;;;;33.33;17.03;;;;;;;9.02;69.70;97222.58;3650690;80;20996;-76
2020/12/04 12:12:44;;;;;;;28.20;15.20;;;;;;;9.05;69.79;97233.43;3708326;78;21060;-76
2020/12/04 12:17:46;;;;;;;32.00;17.63;;;;;;;9.05;69.51;97220.07;3693843;79;21040;-79
2020/12/04 12:22:48;;;;;;;24.03;14.07;;;;;;;9.10;69.44;97209.77;3689312;79;21035;-79
2020/12/04 12:27:50;;;;;;;26.33;14.43;;;;;;;9.09;69.12;97202.84;3620294;80;21057;-79
2020/12/04 12:32:52;;;;;;;22.03;13.23;;;;;;;9.06;69.16;97199.48;3623251;81;21000;-80
2020/12/04 12:37:54;;;;;;;24.30;13.50;;;;;;;9.03;69.08;97203.56;3672715;80;21037;-79
2020/12/04 12:42:56;;;;;;;20.17;11.87;;;;;;;9.10;69.20;97196.97;3652256;81;21038;-79
2020/12/04 12:47:58;;;;;;;19.87;11.97;;;;;;;9.21;68.96;97196.31;3634815;80;20996;-79
2020/12/04 12:53:00;;;;;;;28.93;15.93;;;;;;;9.35;69.02;97197.45;3638150;80;20988;-79
2020/12/04 12:58:03;;;;;;;29.50;14.90;;;;;;;9.49;69.04;97203.95;3647587;79;21015;-79
2020/12/04 13:03:05;;;;;;;28.67;15.90;;;;;;;9.64;69.13;97225.91;3647977;81;21061;-79
2020/12/04 13:08:12;;;;;;;23.23;13.93;;;;;;;9.83;69.13;97223.63;3637867;81;21031;-78
2020/12/04 13:13:14;;;;;;;22.73;13.57;;;;;;;9.98;68.95;97246.95;3637922;81;21000;-79
2020/12/04 13:18:17;;;;;;;35.83;22.17;;;;;;;10.07;68.60;97236.45;3637171;79;21066;-78
2020/12/04 13:23:20;;;;;;;29.87;13.30;;;;;;;10.20;68.66;97235.19;3645390;79;21035;-78
2020/12/04 13:28:23;;;;;;;26.67;13.07;;;;;;;10.31;68.01;97232.39;3656433;79;21416;-79
2020/12/04 13:33:26;;;;;;;20.57;11.73;;;;;;;10.39;67.44;97242.83;3651489;81;21074;-79
2020/12/04 13:38:29;;;;;;;22.87;12.23;;;;;;;10.36;67.08;97258.98;3646867;80;21075;-79
2020/12/04 13:43:31;;;;;;;18.77;10.40;;;;;;;10.31;67.16;97275.22;3642301;79;21031;-79
2020/12/04 13:48:33;;;;;;;15.97;9.00;;;;;;;10.19;66.74;97272.44;3664754;80;21063;-78
2020/12/04 13:53:39;;;;;;;18.93;9.53;;;;;;;9.97;66.69;97276.92;3687184;80;21503;-79
2020/12/04 13:58:42;;;;;;;21.30;10.60;;;;;;;9.75;66.74;97268.03;3683190;80;21014;-79
2020/12/04 14:03:45;;;;;;;18.80;10.83;;;;;;;9.56;66.84;97272.96;3661334;79;21051;-79
2020/12/04 14:08:48;;;;;;;24.57;10.33;;;;;;;9.39;67.00;97275.13;3635484;80;21078;-80
2020/12/04 14:13:50;;;;;;;22.37;11.83;;;;;;;9.29;67.32;97274.90;3650651;80;21031;-80
2020/12/04 14:18:53;;;;;;;30.53;15.13;;;;;;;9.21;67.42;97270.34;3610337;81;21035;-79
2020/12/04 14:23:55;;;;;;;19.27;10.40;;;;;;;9.09;67.53;97265.63;3627205;81;21043;-78
2020/12/04 14:28:57;;;;;;;8.77;5.30;;;;;;;8.99;67.67;97263.28;3601249;81;21013;-79
2020/12/04 14:33:59;;;;;;;8.00;4.67;;;;;;;8.92;67.86;97264.30;3646766;80;21015;-80
2020/12/04 14:39:06;;;;;;;13.37;4.67;;;;;;;8.83;67.82;97273.09;3626848;80;21055;-79
2020/12/04 14:44:08;;;;;;;11.93;5.93;;;;;;;8.71;67.87;97268.36;3663692;80;21032;-80
2020/12/04 14:49:11;;;;;;;11.63;6.47;;;;;;;8.58;68.01;97266.63;3665147;80;21012;-80
2020/12/04 14:54:13;;;;;;;12.27;6.70;;;;;;;8.42;68.10;97264.13;3645823;80;21042;-79
2020/12/04 14:59:16;;;;;;;10.70;5.70;;;;;;;8.27;68.31;97260.81;3663183;79;21521;-78
2020/12/04 15:04:17;;;;;;;10.07;4.93;;;;;;;8.12;68.48;97251.34;3676167;79;21059;-80
2020/12/04 15:09:21;;;;;;;9.40;4.63;;;;;;;8.10;68.95;97242.06;3679286;79;21039;-79
2020/12/04 15:14:22;;;;;;;9.73;5.10;;;;;;;8.13;69.24;97232.11;3670373;79;21395;-80
2020/12/04 15:19:25;;;;;;;7.70;3.70;;;;;;;8.18;69.43;97243.98;3653891;79;21485;-80
2020/12/04 15:24:27;;;;;;;5.07;3.03;;;;;;;8.19;69.47;97238.89;3673194;80;21032;-80
2020/12/04 15:29:29;;;;;;;6.53;4.10;;;;;;;8.21;69.38;97238.02;3673594;80;21040;-80
2020/12/04 15:34:32;;;;;;;10.13;3.93;;;;;;;8.20;69.45;97253.25;3673532;80;21063;-80
2020/12/04 15:39:34;;;;;;;5.47;3.43;;;;;;;8.14;69.39;97248.36;3673831;80;21059;-81
2020/12/04 15:44:36;;;;;;;5.53;3.27;;;;;;;8.08;69.41;97242.94;3675591;80;21496;-81
2020/12/04 15:49:39;;;;;;;8.10;4.23;;;;;;;8.02;69.41;97240.96;3674695;80;21416;-81
2020/12/04 15:54:41;;;;;;;8.80;4.60;;;;;;;7.97;69.39;97243.76;3676291;80;20999;-81
2020/12/04 15:59:43;;;;;;;9.37;5.43;;;;;;;7.89;69.42;97249.31;3660591;79;21063;-79
2020/12/04 16:04:47;;;;;;;9.53;5.23;;;;;;;7.79;69.45;97256.23;3614267;81;21043;-80
2020/12/04 16:09:49;;;;;;;11.27;5.50;;;;;;;7.67;69.46;97265.59;3613288;81;21035;-81
2020/12/04 16:14:51;;;;;;;8.77;5.37;;;;;;;7.59;69.57;97266.33;3647789;80;20966;-80
2020/12/04 16:19:53;;;;;;;11.50;5.70;;;;;;;7.48;69.67;97267.67;3676942;79;21024;-80
2020/12/04 16:24:55;;;;;;;12.63;6.07;;;;;;;7.38;69.93;97281.25;3676783;80;20972;-80
2020/12/04 16:29:57;;;;;;;11.70;6.37;;;;;;;7.26;69.93;97277.79;3661838;80;20988;-80
2020/12/04 16:35:01;;;;;;;20.37;10.77;;;;;;;7.21;70.17;97289.91;3676736;79;21067;-80
2020/12/04 16:40:04;;;;;;;11.10;5.47;;;;;;;7.15;70.25;97295.91;3676969;79;21008;-80
2020/12/04 16:45:06;;;;;;;12.10;6.20;;;;;;;7.07;70.20;97293.96;3676898;80;21004;-80
2020/12/04 16:50:09;;;;;;;13.07;5.90;;;;;;;7.04;70.26;97294.02;3676577;80;21015;-80
2020/12/04 16:55:11;;;;;;;13.03;7.00;;;;;;;7.03;70.47;97287.88;3671599;79;20905;-80
2020/12/04 17:00:13;;;;;;;14.17;7.33;;;;;;;7.05;70.56;97300.12;3646948;79;21467;-80
2020/12/04 17:05:15;;;;;;;13.30;6.67;;;;;;;7.03;70.56;97317.17;3605939;82;21503;-80
2020/12/04 17:10:17;;;;;;;15.27;7.90;;;;;;;7.01;70.58;97338.00;3616943;81;21015;-80
2020/12/04 17:15:19;;;;;;;23.90;12.43;;;;;;;7.01;70.60;97351.87;3640560;81;21017;-81
2020/12/04 17:20:23;;;;;;;20.07;10.53;;;;;;;6.94;70.52;97354.93;3669466;80;20992;-80
2020/12/04 17:25:26;;;;;;;20.90;10.37;;;;;;;6.77;70.32;97346.23;3669673;80;20988;-80
2020/12/04 17:30:28;;;;;;;21.03;11.07;;;;;;;6.53;70.24;97350.42;3675808;80;21038;-80
2020/12/04 17:35:30;;;;;;;21.13;10.03;;;;;;;6.28;70.38;97352.52;3676020;80;20920;-80
2020/12/04 17:40:32;;;;;;;22.70;11.70;;;;;;;6.08;70.47;97353.66;3675369;80;21014;-80
2020/12/04 17:45:37;;;;;;;24.17;13.60;;;;;;;5.93;71.07;97360.02;3675219;80;21077;-81
2020/12/04 17:50:44;;;;;;;31.20;15.33;;;;;;;5.84;71.45;97360.43;3675668;80;21003;-81
2020/12/04 17:55:46;;;;;;;30.90;16.00;;;;;;;5.70;71.44;97367.03;3675725;80;20968;-80
2020/12/04 18:00:51;;;;;;;33.90;17.20;;;;;;;5.62;71.75;97373.00;3673430;80;21345;-81
2020/12/04 18:05:53;;;;;;;37.80;16.47;;;;;;;5.61;72.41;97384.18;3669801;80;21085;-80
2020/12/04 18:10:55;;;;;;;33.13;15.60;;;;;;;5.67;72.73;97388.88;3669028;80;21059;-79
2020/12/04 18:15:57;;;;;;;32.10;14.97;;;;;;;5.75;73.03;97387.41;3669149;80;21012;-80
2020/12/04 18:20:59;;;;;;;26.10;13.17;;;;;;;5.91;72.95;97388.74;3669072;80;21412;-80
2020/12/04 18:26:01;;;;;;;28.97;13.97;;;;;;;6.06;73.00;97406.87;3670341;80;21415;-80
2020/12/04 18:31:03;;;;;;;26.53;13.47;;;;;;;6.27;73.07;97412.65;3675942;80;21065;-80
2020/12/04 18:36:06;;;;;;;21.10;11.13;;;;;;;6.36;72.80;97423.39;3676459;80;21026;-81
2020/12/04 18:41:08;;;;;;;21.73;10.60;;;;;;;6.36;72.56;97421.51;3675988;80;21003;-81
2020/12/04 18:46:10;;;;;;;15.00;8.40;;;;;;;6.40;72.62;97407.88;3675902;80;20970;-80
2020/12/04 18:51:12;;;;;;;13.70;6.70;;;;;;;6.53;72.63;97418.27;3675682;80;20927;-80
2020/12/04 18:56:19;;;;;;;12.40;6.20;;;;;;;6.66;72.57;97413.51;3675095;80;21066;-80
2020/12/04 19:01:24;;;;;;;11.80;6.20;;;;;;;6.77;72.46;97412.78;3635065;80;21040;-79
2020/12/04 19:06:26;;;;;;;10.43;5.40;;;;;;;6.89;72.27;97397.62;3606127;82;20964;-79
2020/12/04 19:11:29;;;;;;;11.33;6.90;;;;;;;6.98;72.07;97407.83;3631030;81;20987;-80
2020/12/04 19:16:30;;;;;;;10.43;5.60;;;;;;;7.07;72.03;97415.12;3646605;81;20977;-81
2020/12/04 19:21:32;;;;;;;9.63;4.93;;;;;;;7.09;71.88;97415.04;3669012;80;20969;-80
2020/12/04 19:26:35;;;;;;;10.70;5.70;;;;;;;7.14;71.88;97415.50;3669126;80;21040;-80
2020/12/04 19:31:37;;;;;;;12.03;5.80;;;;;;;7.18;71.67;97411.16;3668944;80;21016;-80
2020/12/04 19:36:39;;;;;;;9.47;5.63;;;;;;;7.21;71.60;97419.09;3668960;80;20996;-81
2020/12/04 19:41:42;;;;;;;11.03;5.67;;;;;;;7.22;71.57;97412.13;3669120;80;21044;-80
2020/12/04 19:46:44;;;;;;;11.80;5.27;;;;;;;7.22;71.50;97428.11;3669120;81;21008;-80
2020/12/04 19:51:46;;;;;;;11.00;5.60;;;;;;;7.25;71.51;97432.05;3649700;81;21059;-80
2020/12/04 19:56:48;;;;;;;8.17;4.43;;;;;;;7.29;71.55;97433.81;3669241;81;21012;-80
2020/12/04 20:01:53;;;;;;;10.23;5.57;;;;;;;7.33;71.59;97438.79;3625988;80;20984;-79
2020/12/04 20:06:55;;;;;;;10.40;5.40;;;;;;;7.35;71.49;97445.92;3606123;82;21051;-80
2020/12/04 20:11:57;;;;;;;14.67;7.67;;;;;;;7.37;71.34;97464.27;3636980;81;20979;-80
2020/12/04 20:17:01;;;;;;;11.97;6.33;;;;;;;7.39;71.29;97475.96;3669567;79;21436;-80
2020/12/04 20:22:03;;;;;;;15.27;8.10;;;;;;;7.41;71.22;97472.47;3669634;81;21187;-80
2020/12/04 20:27:05;;;;;;;15.77;7.53;;;;;;;7.41;71.15;97471.13;3669253;80;21023;-81
2020/12/04 20:32:08;;;;;;;16.27;8.03;;;;;;;7.38;71.07;97473.08;3650830;81;21031;-79
2020/12/04 20:37:10;;;;;;;16.33;8.87;;;;;;;7.35;71.03;97469.90;3669375;80;20989;-80
2020/12/04 20:42:13;;;;;;;15.67;8.40;;;;;;;7.31;70.94;97471.59;3669064;80;20976;-80
2020/12/04 20:47:15;;;;;;;14.60;7.30;;;;;;;7.27;70.98;97460.50;3669384;80;20984;-80
2020/12/04 20:52:17;;;;;;;13.50;7.13;;;;;;;7.21;71.00;97473.69;3669389;80;21424;-80
2020/12/04 20:57:20;;;;;;;22.23;10.13;;;;;;;7.14;70.98;97472.75;3669208;80;20972;-81
2020/12/04 21:02:22;;;;;;;18.90;9.47;;;;;;;7.09;71.10;97478.95;3619253;80;20944;-81
2020/12/04 21:07:24;;;;;;;19.13;9.50;;;;;;;7.03;71.18;97480.92;3605924;82;21290;-81
2020/12/04 21:12:26;;;;;;;14.43;7.80;;;;;;;6.96;71.27;97488.53;3642625;81;21011;-81
2020/12/04 21:17:30;;;;;;;14.63;7.10;;;;;;;6.89;71.38;97484.14;3665179;79;21050;-81
2020/12/04 21:22:35;;;;;;;12.10;6.77;;;;;;;6.85;71.51;97484.48;3665881;81;21028;-81
2020/12/04 21:27:37;;;;;;;12.67;6.90;;;;;;;6.81;71.67;97476.84;3638437;81;21545;-82
2020/12/04 21:32:40;;;;;;;16.13;8.30;;;;;;;6.76;71.81;97486.27;3632666;81;21481;-82
2020/12/04 21:37:44;;;;;;;14.03;7.30;;;;;;;6.71;71.94;97479.15;3608331;82;21045;-81
2020/12/04 21:42:47;;;;;;;12.20;7.83;;;;;;;6.71;72.07;97484.47;3612310;81;21021;-81
2020/12/04 21:47:49;;;;;;;16.07;7.73;;;;;;;6.71;72.21;97497.77;3611965;81;21053;-81
2020/12/04 21:52:52;;;;;;;11.63;6.63;;;;;;;6.70;72.35;97502.84;3611982;81;20954;-81
2020/12/04 21:57:54;;;;;;;11.83;6.90;;;;;;;6.64;72.31;97502.14;3611911;81;21049;-80
2020/12/04 22:02:56;;;;;;;9.20;5.63;;;;;;;6.62;72.49;97500.34;3611884;80;21091;-81
2020/12/04 22:08:00;;;;;;;9.27;6.10;;;;;;;6.67;72.66;97498.11;3612224;82;20984;-82
2020/12/04 22:13:04;;;;;;;9.10;5.67;;;;;;;6.73;72.66;97489.49;3639227;80;21052;-80
2020/12/04 22:18:06;;;;;;;10.90;6.60;;;;;;;6.74;72.75;97503.84;3675518;80;21027;-82
2020/12/04 22:23:08;;;;;;;9.23;5.60;;;;;;;6.79;72.72;97506.97;3675259;80;20968;-80
2020/12/04 22:28:09;;;;;;;10.43;6.50;;;;;;;6.82;72.64;97517.02;3675036;80;21008;-82
2020/12/04 22:33:11;;;;;;;11.00;6.53;;;;;;;6.83;72.80;97510.63;3675397;80;21449;-81
2020/12/04 22:38:14;;;;;;;12.97;7.03;;;;;;;6.84;72.73;97521.49;3675228;80;21007;-81
2020/12/04 22:43:17;;;;;;;13.37;7.30;;;;;;;6.82;72.75;97521.02;3675477;80;21499;-81
2020/12/04 22:48:20;;;;;;;13.33;8.20;;;;;;;6.83;72.80;97526.59;3675412;80;20960;-81
2020/12/04 22:53:23;;;;;;;12.93;7.73;;;;;;;6.86;72.80;97523.34;3658155;80;21028;-81
2020/12/04 22:58:25;;;;;;;14.43;8.90;;;;;;;6.88;72.90;97521.16;3675382;80;21040;-81
2020/12/04 23:03:27;;;;;;;9.70;5.80;;;;;;;6.90;72.94;97525.66;3586694;82;21015;-81
2020/12/04 23:08:30;;;;;;;11.33;6.37;;;;;;;6.90;73.00;97517.67;3649533;81;21051;-81
2020/12/04 23:13:34;;;;;;;8.43;5.63;;;;;;;6.96;73.05;97507.72;3695301;80;21048;-80
2020/12/04 23:18:37;;;;;;;11.53;6.73;;;;;;;7.03;72.99;97517.43;3714357;79;20948;-81
2020/12/04 23:23:39;;;;;;;11.93;6.63;;;;;;;7.06;73.04;97524.82;3714270;80;21027;-79
2020/12/04 23:28:45;;;;;;;10.03;6.40;;;;;;;7.09;72.94;97532.77;3671286;80;21024;-79
2020/12/04 23:33:48;;;;;;;12.13;7.70;;;;;;;7.15;73.00;97524.94;3655099;80;21265;-80
2020/12/04 23:38:51;;;;;;;13.67;7.50;;;;;;;7.19;72.91;97529.89;3655020;80;21024;-79